Time;durP1;ratioP1;P1;durP2;ratioP2;P2;SDS_P1;SDS_P2;PMS_P1;PMS_P2;Temp;Humidity;BMP_temperature;BMP_pressure;BME280_temperature;BME280_humidity;BME280_pressure;Samples;Min_cycle;Max_cycle;Signal;HPM_P1;HPM_P2
2023/05/11 00:02:16;;;;;;;13.70;3.90;;;;;;;;;;5066840;28;20048;-75
2023/05/11 00:04:50;;;;;;;5.13;3.22;;;;;;;;;;5065566;28;20055;-75
2023/05/11 00:07:23;;;;;;;9.63;4.47;;;;;;;;;;5067063;28;20044;-74
2023/05/11 00:09:56;;;;;;;13.68;3.85;;;;;;;;;;5065533;28;20503;-74
2023/05/11 00:12:30;;;;;;;10.10;3.80;;;;;;;;;;5066521;28;20044;-75
2023/05/11 00:15:06;;;;;;;9.02;4.25;;;;;;;;;;5061027;28;20037;-75
2023/05/11 00:17:41;;;;;;;6.55;4.30;;;;;;;;;;5046401;28;20049;-75
2023/05/11 00:20:14;;;;;;;6.07;4.22;;;;;;;;;;5046557;28;20045;-75
2023/05/11 00:22:46;;;;;;;4.97;3.78;;;;;;;;;;5051920;28;20048;-75
2023/05/11 00:25:19;;;;;;;13.43;4.85;;;;;;;;;;5066867;28;20048;-75
2023/05/11 00:27:51;;;;;;;5.97;3.80;;;;;;;;;;5063778;28;20059;-75
2023/05/11 00:30:24;;;;;;;7.93;4.13;;;;;;;;;;5064061;28;20068;-75
2023/05/11 00:32:57;;;;;;;11.20;3.95;;;;;;;;;;5066535;28;20044;-74
2023/05/11 00:35:31;;;;;;;8.63;3.17;;;;;;;;;;5063966;28;20060;-75
2023/05/11 00:38:05;;;;;;;7.43;3.72;;;;;;;;;;5064740;28;20048;-78
2023/05/11 00:40:37;;;;;;;12.63;4.20;;;;;;;;;;5066253;28;20048;-75
2023/05/11 00:43:09;;;;;;;8.95;3.70;;;;;;;;;;5064005;28;20060;-75
2023/05/11 00:45:46;;;;;;;11.18;3.95;;;;;;;;;;5064389;28;20395;-75
2023/05/11 00:48:19;;;;;;;5.93;4.07;;;;;;;;;;5065621;28;20052;-74
2023/05/11 00:50:50;;;;;;;12.05;3.45;;;;;;;;;;5065908;28;20067;-74
2023/05/11 00:53:22;;;;;;;5.45;4.20;;;;;;;;;;5063228;28;20048;-75
2023/05/11 00:56:01;;;;;;;7.22;3.95;;;;;;;;;;5066996;28;20506;-75
2023/05/11 00:58:36;;;;;;;8.80;4.32;;;;;;;;;;5063472;28;20518;-75
2023/05/11 01:01:13;;;;;;;10.75;4.35;;;;;;;;;;5064708;28;20056;-76
2023/05/11 01:03:46;;;;;;;10.27;4.20;;;;;;;;;;5063822;28;20063;-75
2023/05/11 01:06:21;;;;;;;6.97;4.05;;;;;;;;;;5063470;28;20056;-74
2023/05/11 01:09:12;;;;;;;10.07;3.92;;;;;;;;;;5063638;28;20052;-74
2023/05/11 01:12:09;;;;;;;6.53;4.18;;;;;;;;;;5063100;28;20056;-75
2023/05/11 01:15:05;;;;;;;10.38;4.88;;;;;;;;;;5045226;28;20056;-75
2023/05/11 01:18:20;;;;;;;7.30;4.03;;;;;;;;;;5063124;28;20059;-74
2023/05/11 01:20:59;;;;;;;8.82;4.95;;;;;;;;;;5046602;28;20060;-74
2023/05/11 01:23:44;;;;;;;9.55;3.88;;;;;;;;;;5063172;28;20056;-74
2023/05/11 01:26:38;;;;;;;9.95;4.78;;;;;;;;;;5063632;28;20052;-75
2023/05/11 01:29:55;;;;;;;9.95;4.57;;;;;;;;;;5064018;28;20052;-75
2023/05/11 01:32:29;;;;;;;7.63;3.92;;;;;;;;;;5061694;28;20052;-76
2023/05/11 01:35:14;;;;;;;12.98;4.88;;;;;;;;;;5065010;28;20056;-74
2023/05/11 01:37:54;;;;;;;10.27;5.00;;;;;;;;;;5064081;28;20460;-75
2023/05/11 01:40:31;;;;;;;7.22;4.70;;;;;;;;;;5065333;28;20491;-75
2023/05/11 01:43:08;;;;;;;12.15;4.80;;;;;;;;;;5061709;28;20059;-75
2023/05/11 01:45:46;;;;;;;8.38;4.63;;;;;;;;;;5065321;28;20545;-75
2023/05/11 01:48:24;;;;;;;8.57;4.43;;;;;;;;;;5064863;28;20052;-74
2023/05/11 01:51:00;;;;;;;8.70;4.15;;;;;;;;;;5063886;28;20044;-74
2023/05/11 01:53:34;;;;;;;8.20;4.03;;;;;;;;;;5062884;28;20060;-74
2023/05/11 01:56:06;;;;;;;7.40;4.03;;;;;;;;;;5064630;28;20402;-74
2023/05/11 01:58:39;;;;;;;5.88;4.43;;;;;;;;;;5065345;28;20051;-76
2023/05/11 02:01:12;;;;;;;7.75;4.30;;;;;;;;;;5064474;28;20052;-74
2023/05/11 02:03:45;;;;;;;7.93;4.50;;;;;;;;;;5062145;28;20523;-75
2023/05/11 02:06:20;;;;;;;9.07;4.32;;;;;;;;;;5062772;28;20052;-75
2023/05/11 02:08:52;;;;;;;9.77;5.13;;;;;;;;;;5064407;28;20059;-74
2023/05/11 02:11:26;;;;;;;9.40;4.53;;;;;;;;;;5062670;28;20048;-75
2023/05/11 02:13:59;;;;;;;10.63;4.13;;;;;;;;;;5063136;28;20057;-75
2023/05/11 02:16:32;;;;;;;6.40;4.15;;;;;;;;;;5063643;28;20052;-74
2023/05/11 02:19:06;;;;;;;10.43;4.00;;;;;;;;;;5062565;28;20056;-74
2023/05/11 02:21:39;;;;;;;9.70;4.47;;;;;;;;;;5064592;28;20056;-74
2023/05/11 02:24:10;;;;;;;7.28;4.57;;;;;;;;;;5062590;28;20052;-74
2023/05/11 02:26:42;;;;;;;8.90;4.40;;;;;;;;;;5062815;28;20048;-75
2023/05/11 02:29:15;;;;;;;8.48;3.80;;;;;;;;;;5062743;28;20045;-75
2023/05/11 02:31:49;;;;;;;11.63;5.00;;;;;;;;;;5063160;28;20499;-74
2023/05/11 02:34:28;;;;;;;7.10;4.57;;;;;;;;;;5062606;28;20059;-74
2023/05/11 02:37:04;;;;;;;7.30;4.50;;;;;;;;;;5062427;28;20049;-75
2023/05/11 02:39:37;;;;;;;7.47;4.55;;;;;;;;;;5062757;28;20525;-75
2023/05/11 02:42:19;;;;;;;7.28;4.88;;;;;;;;;;5063088;28;20514;-75
2023/05/11 02:45:11;;;;;;;11.52;5.10;;;;;;;;;;5062381;28;20044;-75
2023/05/11 02:47:47;;;;;;;8.68;3.58;;;;;;;;;;5063189;28;20052;-75
2023/05/11 02:50:25;;;;;;;8.60;4.45;;;;;;;;;;5062315;28;20053;-74
2023/05/11 02:52:59;;;;;;;7.43;4.90;;;;;;;;;;5064681;28;20055;-74
2023/05/11 02:55:30;;;;;;;8.70;5.53;;;;;;;;;;5062763;28;20052;-75
2023/05/11 02:58:02;;;;;;;8.90;4.72;;;;;;;;;;5064603;28;20528;-74
2023/05/11 03:00:32;;;;;;;14.07;4.20;;;;;;;;;;5065920;28;20063;-74
2023/05/11 03:03:04;;;;;;;7.38;3.92;;;;;;;;;;5068283;28;20049;-74
2023/05/11 03:05:34;;;;;;;6.57;4.72;;;;;;;;;;5068773;28;20049;-74
2023/05/11 03:08:03;;;;;;;;;;;;;;;;;;5066348;28;20507;-75
2023/05/11 03:10:35;;;;;;;9.32;4.25;;;;;;;;;;5066147;28;20729;-74
2023/05/11 03:13:07;;;;;;;6.75;4.75;;;;;;;;;;5067972;28;20438;-74
2023/05/11 03:15:38;;;;;;;11.52;4.80;;;;;;;;;;5066502;28;20044;-75
2023/05/11 03:18:09;;;;;;;5.93;4.70;;;;;;;;;;5067893;28;20041;-74
2023/05/11 03:20:42;;;;;;;11.48;5.03;;;;;;;;;;5067933;28;20052;-75
2023/05/11 03:23:17;;;;;;;7.35;3.92;;;;;;;;;;5065851;28;20057;-75
2023/05/11 03:25:48;;;;;;;7.13;4.40;;;;;;;;;;5067837;28;20052;-75
2023/05/11 03:28:25;;;;;;;8.38;4.72;;;;;;;;;;5067546;28;20048;-75
2023/05/11 03:31:00;;;;;;;10.48;5.72;;;;;;;;;;5064848;28;20059;-75
2023/05/11 03:33:33;;;;;;;7.35;4.90;;;;;;;;;;5065938;28;20091;-75
2023/05/11 03:36:08;;;;;;;7.07;4.68;;;;;;;;;;5065541;28;20503;-74
2023/05/11 03:38:39;;;;;;;9.02;5.07;;;;;;;;;;5067694;28;20064;-74
2023/05/11 03:41:16;;;;;;;7.85;4.65;;;;;;;;;;5065645;28;20052;-75
2023/05/11 03:43:54;;;;;;;12.75;4.63;;;;;;;;;;5065050;28;20079;-74
2023/05/11 03:46:26;;;;;;;6.82;4.28;;;;;;;;;;5065649;28;20048;-75
2023/05/11 03:48:57;;;;;;;6.85;5.18;;;;;;;;;;5067486;28;20055;-75
2023/05/11 03:51:30;;;;;;;7.75;4.50;;;;;;;;;;5065366;28;20052;-74
2023/05/11 03:54:02;;;;;;;8.13;4.70;;;;;;;;;;5065049;28;20521;-74
2023/05/11 03:56:41;;;;;;;10.07;4.32;;;;;;;;;;5065178;28;20465;-74
2023/05/11 03:59:15;;;;;;;8.98;5.03;;;;;;;;;;5067008;28;20059;-76
2023/05/11 04:01:46;;;;;;;10.05;4.30;;;;;;;;;;5064916;28;20135;-75
2023/05/11 04:04:17;;;;;;;7.28;4.55;;;;;;;;;;5065365;28;20052;-76
2023/05/11 04:06:47;;;;;;;8.95;4.35;;;;;;;;;;5064452;28;20059;-75
2023/05/11 04:09:21;;;;;;;10.57;5.20;;;;;;;;;;5065632;28;20052;-75
2023/05/11 04:11:52;;;;;;;8.20;4.13;;;;;;;;;;5064345;28;20056;-74
2023/05/11 04:14:23;;;;;;;7.85;4.13;;;;;;;;;;5067220;28;20683;-75
2023/05/11 04:16:53;;;;;;;7.90;3.90;;;;;;;;;;5067089;28;20052;-75
2023/05/11 04:19:23;;;;;;;7.47;3.97;;;;;;;;;;5066635;28;20045;-75
2023/05/11 04:21:56;;;;;;;9.07;4.32;;;;;;;;;;5066850;28;20044;-75
2023/05/11 04:24:27;;;;;;;6.50;3.47;;;;;;;;;;5065048;28;20415;-75
2023/05/11 04:26:57;;;;;;;5.07;3.47;;;;;;;;;;5067230;28;20067;-75
2023/05/11 04:29:27;;;;;;;8.23;2.90;;;;;;;;;;5064959;28;20667;-75
2023/05/11 04:31:58;;;;;;;;;;;;;;;;;;5065181;28;20490;-74
2023/05/11 04:34:30;;;;;;;6.10;3.55;;;;;;;;;;5064851;28;19924;-75
2023/05/11 04:37:05;;;;;;;5.63;3.50;;;;;;;;;;5064341;28;20065;-74
2023/05/11 04:39:37;;;;;;;7.18;3.83;;;;;;;;;;5063719;28;20048;-75
2023/05/11 04:42:07;;;;;;;6.13;4.10;;;;;;;;;;5066177;28;20529;-74
2023/05/11 04:44:38;;;;;;;4.03;3.05;;;;;;;;;;5064539;28;20665;-75
2023/05/11 04:47:09;;;;;;;11.65;3.45;;;;;;;;;;5064307;28;20060;-76
2023/05/11 04:49:40;;;;;;;;;;;;;;;;;;5066541;28;20048;-75
2023/05/11 04:52:11;;;;;;;7.18;3.97;;;;;;;;;;5064072;28;19924;-76
2023/05/11 04:54:46;;;;;;;5.63;3.90;;;;;;;;;;5063660;28;20048;-75
2023/05/11 04:57:16;;;;;;;7.97;4.00;;;;;;;;;;5063690;28;20044;-74
2023/05/11 04:59:48;;;;;;;4.32;3.13;;;;;;;;;;5064148;28;20056;-75
2023/05/11 05:02:19;;;;;;;5.20;3.85;;;;;;;;;;5063903;28;20060;-75
2023/05/11 05:04:52;;;;;;;6.95;3.58;;;;;;;;;;5064513;28;20048;-74
2023/05/11 05:07:22;;;;;;;7.60;4.28;;;;;;;;;;5065682;28;20060;-75
2023/05/11 05:09:52;;;;;;;7.80;4.03;;;;;;;;;;5065611;28;20422;-75
2023/05/11 05:12:23;;;;;;;9.23;4.72;;;;;;;;;;5065809;28;20049;-75
2023/05/11 05:14:54;;;;;;;7.68;5.00;;;;;;;;;;5063821;28;20052;-74
2023/05/11 05:17:25;;;;;;;8.50;6.18;;;;;;;;;;5065521;28;20048;-75
2023/05/11 05:19:56;;;;;;;15.30;4.95;;;;;;;;;;5064264;28;20049;-74
2023/05/11 05:22:28;;;;;;;10.25;6.18;;;;;;;;;;5063013;28;20045;-75
2023/05/11 05:25:06;;;;;;;9.48;5.80;;;;;;;;;;5065534;28;20040;-74
2023/05/11 05:27:36;;;;;;;7.38;5.05;;;;;;;;;;5063413;28;20059;-74
2023/05/11 05:30:09;;;;;;;10.50;6.00;;;;;;;;;;5063070;28;20056;-74
2023/05/11 05:32:41;;;;;;;6.75;4.32;;;;;;;;;;5063548;28;20514;-74
2023/05/11 05:35:11;;;;;;;7.30;4.30;;;;;;;;;;5066010;28;20041;-75
2023/05/11 05:37:43;;;;;;;12.23;4.85;;;;;;;;;;5063716;28;20067;-76
2023/05/11 05:40:14;;;;;;;6.60;4.25;;;;;;;;;;5063281;28;20515;-76
2023/05/11 05:42:52;;;;;;;9.20;5.05;;;;;;;;;;5062863;28;20094;-74
2023/05/11 05:45:24;;;;;;;8.15;4.97;;;;;;;;;;5063021;28;20526;-75
2023/05/11 05:47:59;;;;;;;9.45;5.03;;;;;;;;;;5063346;28;20055;-74
2023/05/11 05:50:29;;;;;;;9.82;4.50;;;;;;;;;;5063645;28;20057;-75
2023/05/11 05:52:59;;;;;;;6.22;5.10;;;;;;;;;;5064730;28;20056;-75
2023/05/11 05:55:32;;;;;;;7.93;4.38;;;;;;;;;;5062790;28;20749;-75
2023/05/11 05:58:04;;;;;;;7.63;4.63;;;;;;;;;;5062890;28;20385;-75
2023/05/11 06:00:35;;;;;;;7.53;4.35;;;;;;;;;;5063372;28;20362;-75
2023/05/11 06:11:12;;;;;;;4.80;4.10;;;;;;;;;;5057762;28;20048;-75
2023/05/11 06:13:44;;;;;;;6.53;4.05;;;;;;;;;;5063162;28;20063;-75
2023/05/11 06:16:15;;;;;;;6.05;4.53;;;;;;;;;;5063681;28;20510;-75
2023/05/11 06:18:47;;;;;;;8.15;3.85;;;;;;;;;;5064576;28;20423;-76
2023/05/11 06:21:17;;;;;;;10.13;4.35;;;;;;;;;;5063103;28;20048;-75
2023/05/11 06:23:48;;;;;;;5.97;4.20;;;;;;;;;;5062428;28;20072;-75
2023/05/11 06:26:20;;;;;;;13.88;4.53;;;;;;;;;;5062031;28;20760;-74
2023/05/11 06:28:51;;;;;;;11.65;4.05;;;;;;;;;;5062656;28;20064;-75
2023/05/11 06:31:23;;;;;;;9.13;4.18;;;;;;;;;;5064801;28;20045;-75
2023/05/11 06:33:55;;;;;;;7.82;4.20;;;;;;;;;;5063766;28;20138;-74
2023/05/11 06:36:28;;;;;;;9.40;4.68;;;;;;;;;;5066969;28;20507;-74
2023/05/11 06:38:59;;;;;;;13.52;4.93;;;;;;;;;;5066349;28;20075;-75
2023/05/11 06:45:10;;;;;;;4.88;3.42;;;;;;;;;;5066199;28;20067;-75
2023/05/11 06:47:43;;;;;;;8.38;5.15;;;;;;;;;;5068786;28;20040;-74
2023/05/11 06:50:14;;;;;;;10.50;4.95;;;;;;;;;;5068342;28;20503;-76
2023/05/11 06:52:47;;;;;;;8.77;4.70;;;;;;;;;;5068087;28;20048;-75
2023/05/11 06:55:16;;;;;;;;;;;;;;;;;;5068762;28;20418;-76
2023/05/11 06:57:47;;;;;;;11.10;5.10;;;;;;;;;;5068226;28;20940;-74
2023/05/11 07:00:18;;;;;;;8.30;5.15;;;;;;;;;;5067688;28;20052;-74
2023/05/11 07:02:49;;;;;;;9.43;5.10;;;;;;;;;;5065958;28;20052;-74
2023/05/11 07:05:19;;;;;;;9.85;5.30;;;;;;;;;;5067406;28;20052;-74
2023/05/11 07:07:50;;;;;;;9.73;5.10;;;;;;;;;;5068214;28;20064;-75
2023/05/11 07:10:21;;;;;;;11.38;6.03;;;;;;;;;;5067652;28;20059;-74
2023/05/11 07:12:52;;;;;;;11.27;5.97;;;;;;;;;;5067557;28;20032;-75
2023/05/11 07:15:22;;;;;;;10.02;5.95;;;;;;;;;;5067907;28;20059;-75
2023/05/11 07:17:52;;;;;;;9.98;5.93;;;;;;;;;;5067616;28;20048;-75
2023/05/11 07:20:23;;;;;;;12.82;6.05;;;;;;;;;;5066959;28;20060;-74
2023/05/11 07:22:58;;;;;;;8.68;6.18;;;;;;;;;;5067948;28;20056;-74
2023/05/11 07:25:29;;;;;;;13.73;5.93;;;;;;;;;;5067517;28;20044;-75
2023/05/11 07:28:00;;;;;;;10.07;6.25;;;;;;;;;;5067588;28;20770;-75
2023/05/11 07:30:31;;;;;;;9.63;6.05;;;;;;;;;;5067497;28;20052;-74
2023/05/11 07:33:02;;;;;;;12.80;7.13;;;;;;;;;;5066957;28;20495;-74
2023/05/11 07:35:33;;;;;;;9.90;5.88;;;;;;;;;;5067033;28;20055;-74
2023/05/11 07:38:06;;;;;;;9.85;5.75;;;;;;;;;;5065385;28;20083;-74
2023/05/11 07:40:36;;;;;;;11.18;6.03;;;;;;;;;;5067367;28;20052;-74
2023/05/11 07:43:08;;;;;;;8.65;6.50;;;;;;;;;;5066915;28;20438;-75
2023/05/11 07:45:40;;;;;;;13.00;6.80;;;;;;;;;;5067111;28;20503;-75
2023/05/11 07:48:10;;;;;;;12.02;6.20;;;;;;;;;;5067582;28;20107;-75
2023/05/11 07:50:41;;;;;;;;;;;;;;;;;;5067609;28;20780;-74
2023/05/11 07:53:12;;;;;;;9.65;5.55;;;;;;;;;;5067488;28;20405;-75
2023/05/11 07:55:42;;;;;;;10.73;5.78;;;;;;;;;;5066483;28;20056;-76
2023/05/11 07:58:12;;;;;;;12.48;6.35;;;;;;;;;;5067447;28;20048;-74
2023/05/11 08:00:42;;;;;;;13.10;6.20;;;;;;;;;;5067394;28;20055;-74
2023/05/11 08:03:13;;;;;;;11.57;6.65;;;;;;;;;;5067363;28;20052;-75
2023/05/11 08:05:44;;;;;;;10.50;6.60;;;;;;;;;;5067095;28;20053;-75
2023/05/11 08:08:15;;;;;;;;;;;;;;;;;;5067288;28;20063;-75
2023/05/11 08:10:46;;;;;;;9.95;5.40;;;;;;;;;;5066851;28;20379;-74
2023/05/11 08:13:15;;;;;;;;;;;;;;;;;;5067809;28;20415;-75
2023/05/11 08:15:46;;;;;;;14.40;5.80;;;;;;;;;;5065509;28;19931;-73
2023/05/11 08:18:17;;;;;;;9.95;6.05;;;;;;;;;;5066882;28;20055;-76
2023/05/11 08:20:54;;;;;;;10.73;5.07;;;;;;;;;;5066702;28;20067;-74
2023/05/11 08:23:25;;;;;;;9.77;6.15;;;;;;;;;;5066335;28;20049;-75
2023/05/11 08:25:55;;;;;;;9.98;5.13;;;;;;;;;;5066382;28;20859;-75
2023/05/11 08:28:26;;;;;;;9.02;5.90;;;;;;;;;;5066235;28;20049;-75
2023/05/11 08:30:58;;;;;;;7.65;5.63;;;;;;;;;;5066447;28;20052;-75
2023/05/11 08:33:28;;;;;;;11.93;6.18;;;;;;;;;;5066420;28;20056;-75
2023/05/11 08:36:01;;;;;;;13.32;6.70;;;;;;;;;;5067622;28;20049;-76
2023/05/11 08:38:32;;;;;;;9.73;5.85;;;;;;;;;;5066201;28;20510;-73
2023/05/11 08:41:03;;;;;;;9.27;5.93;;;;;;;;;;5066199;28;20037;-75
2023/05/11 08:43:38;;;;;;;11.15;6.35;;;;;;;;;;5065903;28;20044;-74
2023/05/11 08:46:13;;;;;;;12.02;5.68;;;;;;;;;;5064415;28;20419;-75
2023/05/11 08:48:44;;;;;;;13.60;6.32;;;;;;;;;;5066344;28;20049;-74
2023/05/11 08:51:15;;;;;;;10.95;6.63;;;;;;;;;;5066382;28;20051;-75
2023/05/11 08:53:45;;;;;;;10.43;6.15;;;;;;;;;;5065769;28;20045;-74
2023/05/11 08:56:16;;;;;;;9.93;5.25;;;;;;;;;;5064958;28;20417;-74
2023/05/11 08:58:50;;;;;;;11.90;6.93;;;;;;;;;;5065860;28;20499;-74
2023/05/11 09:01:27;;;;;;;8.65;5.50;;;;;;;;;;5066244;28;20053;-74
2023/05/11 09:03:58;;;;;;;11.40;6.47;;;;;;;;;;5068222;28;20061;-75
2023/05/11 09:06:30;;;;;;;11.02;6.10;;;;;;;;;;5066540;28;20049;-73
2023/05/11 09:09:00;;;;;;;11.02;6.72;;;;;;;;;;5065522;28;20511;-75
2023/05/11 09:11:32;;;;;;;10.75;5.80;;;;;;;;;;5066111;28;20685;-75
2023/05/11 09:14:02;;;;;;;14.80;6.88;;;;;;;;;;5066213;28;20048;-74
2023/05/11 09:16:32;;;;;;;12.48;5.93;;;;;;;;;;5065825;28;20052;-75
2023/05/11 09:19:06;;;;;;;12.75;6.32;;;;;;;;;;5065265;28;20056;-74
2023/05/11 09:21:39;;;;;;;10.18;6.85;;;;;;;;;;5065836;28;20491;-75
2023/05/11 09:24:13;;;;;;;11.27;6.53;;;;;;;;;;5063885;28;20534;-74
2023/05/11 09:26:43;;;;;;;10.15;6.40;;;;;;;;;;5065551;28;20761;-74
2023/05/11 09:29:18;;;;;;;10.90;6.57;;;;;;;;;;5065367;28;20057;-75
2023/05/11 09:31:50;;;;;;;10.45;6.25;;;;;;;;;;5064799;28;20095;-75
2023/05/11 09:34:23;;;;;;;12.48;7.40;;;;;;;;;;5065295;28;20049;-76
2023/05/11 09:36:55;;;;;;;11.27;6.43;;;;;;;;;;5065194;28;20059;-75
2023/05/11 09:39:33;;;;;;;13.07;6.15;;;;;;;;;;5065303;28;20044;-73
2023/05/11 09:42:23;;;;;;;13.68;6.70;;;;;;;;;;5065500;28;20044;-74
2023/05/11 09:44:53;;;;;;;9.35;6.22;;;;;;;;;;5065402;28;20040;-75
2023/05/11 09:47:23;;;;;;;11.77;6.60;;;;;;;;;;5064802;28;20048;-74
2023/05/11 09:49:55;;;;;;;10.95;6.45;;;;;;;;;;5064494;28;20059;-75
2023/05/11 09:52:25;;;;;;;8.15;4.88;;;;;;;;;;5064821;28;20049;-75
2023/05/11 09:54:55;;;;;;;11.88;6.18;;;;;;;;;;5064951;28;20044;-74
2023/05/11 09:57:26;;;;;;;8.50;5.93;;;;;;;;;;5065242;28;20071;-74
2023/05/11 09:59:59;;;;;;;11.80;5.93;;;;;;;;;;5063335;28;20415;-78
2023/05/11 10:02:39;;;;;;;10.48;6.15;;;;;;;;;;5065944;28;20071;-73
2023/05/11 10:05:13;;;;;;;7.50;5.85;;;;;;;;;;5064908;28;20067;-73
2023/05/11 10:07:44;;;;;;;11.70;5.65;;;;;;;;;;5064757;28;20055;-74
2023/05/11 10:10:15;;;;;;;11.60;5.90;;;;;;;;;;5064585;28;20047;-74
2023/05/11 10:12:45;;;;;;;10.55;6.13;;;;;;;;;;5064454;28;20056;-74
2023/05/11 10:15:24;;;;;;;11.98;6.65;;;;;;;;;;5063782;28;20036;-74
2023/05/11 10:17:55;;;;;;;12.80;6.57;;;;;;;;;;5064492;28;20051;-74
2023/05/11 10:20:26;;;;;;;10.23;6.88;;;;;;;;;;5064741;28;20055;-75
2023/05/11 10:22:57;;;;;;;13.48;6.75;;;;;;;;;;5064561;28;20055;-75
2023/05/11 10:25:28;;;;;;;11.98;6.50;;;;;;;;;;5064337;28;20053;-75
2023/05/11 10:27:58;;;;;;;11.32;6.75;;;;;;;;;;5064484;28;20043;-75
2023/05/11 10:30:28;;;;;;;;;;;;;;;;;;5065398;28;20056;-74
2023/05/11 10:33:00;;;;;;;8.73;6.22;;;;;;;;;;5063312;28;19921;-74
2023/05/11 10:35:32;;;;;;;13.73;6.95;;;;;;;;;;5063817;28;20044;-72
2023/05/11 10:38:03;;;;;;;13.50;7.30;;;;;;;;;;5064915;28;20036;-72
2023/05/11 10:40:39;;;;;;;16.80;7.43;;;;;;;;;;5064677;28;20052;-74
2023/05/11 10:43:28;;;;;;;12.25;6.55;;;;;;;;;;5064668;28;20503;-73
2023/05/11 10:46:14;;;;;;;17.83;7.10;;;;;;;;;;5064431;28;20402;-80
2023/05/11 10:49:07;;;;;;;10.73;7.05;;;;;;;;;;5064154;28;20041;-74
2023/05/11 10:51:43;;;;;;;11.82;6.95;;;;;;;;;;5064775;28;20044;-75
2023/05/11 10:54:26;;;;;;;;;;;;;;;;;;5064759;28;20052;-75
2023/05/11 10:57:10;;;;;;;19.92;6.43;;;;;;;;;;5064645;28;20599;-76
2023/05/11 10:59:55;;;;;;;14.25;8.25;;;;;;;;;;5064521;28;20056;-73
2023/05/11 11:02:30;;;;;;;19.08;7.85;;;;;;;;;;5062089;28;20048;-74
2023/05/11 11:05:09;;;;;;;13.45;9.75;;;;;;;;;;5064099;28;20772;-73
2023/05/11 11:08:02;;;;;;;13.55;10.18;;;;;;;;;;5064082;28;20060;-73
2023/05/11 11:10:45;;;;;;;20.33;9.57;;;;;;;;;;5063022;28;20048;-74
2023/05/11 11:13:22;;;;;;;16.30;8.23;;;;;;;;;;5064795;28;20483;-73
2023/05/11 11:15:54;;;;;;;11.95;6.45;;;;;;;;;;5063832;28;20045;-74
2023/05/11 11:18:30;;;;;;;11.55;6.43;;;;;;;;;;5064190;28;20045;-76
2023/05/11 11:21:01;;;;;;;9.10;5.75;;;;;;;;;;5066811;28;20052;-75
2023/05/11 11:23:48;;;;;;;8.65;5.80;;;;;;;;;;5067592;28;20446;-75
2023/05/11 11:26:46;;;;;;;12.88;4.43;;;;;;;;;;5067609;28;20044;-75
2023/05/11 11:29:17;;;;;;;13.75;5.32;;;;;;;;;;5066272;28;20049;-74
2023/05/11 11:31:47;;;;;;;8.57;4.55;;;;;;;;;;5066923;28;20495;-75
2023/05/11 11:34:31;;;;;;;8.60;4.70;;;;;;;;;;5067432;28;20052;-75
2023/05/11 11:37:05;;;;;;;13.18;4.18;;;;;;;;;;5068025;28;20415;-76
2023/05/11 11:39:44;;;;;;;9.52;4.63;;;;;;;;;;5067316;28;20049;-76
2023/05/11 11:42:16;;;;;;;14.60;7.55;;;;;;;;;;5067987;28;20536;-75
2023/05/11 11:44:47;;;;;;;11.13;5.53;;;;;;;;;;5067804;28;20072;-76
2023/05/11 11:47:22;;;;;;;13.27;5.03;;;;;;;;;;5067241;28;20649;-76
2023/05/11 11:49:54;;;;;;;8.68;5.45;;;;;;;;;;5067663;28;20059;-76
2023/05/11 11:52:27;;;;;;;10.55;4.38;;;;;;;;;;5067657;28;20391;-75
2023/05/11 11:54:59;;;;;;;7.22;4.97;;;;;;;;;;5066683;28;20045;-75
2023/05/11 11:57:31;;;;;;;13.30;5.13;;;;;;;;;;5066981;28;20052;-76
2023/05/11 12:00:09;;;;;;;9.65;4.60;;;;;;;;;;5067194;28;20506;-76
2023/05/11 12:02:44;;;;;;;13.43;4.70;;;;;;;;;;5067283;28;20080;-76
2023/05/11 12:05:21;;;;;;;7.22;4.05;;;;;;;;;;5067101;28;20052;-78
2023/05/11 12:07:53;;;;;;;7.75;4.57;;;;;;;;;;5066559;28;20041;-76
2023/05/11 12:10:25;;;;;;;9.07;3.67;;;;;;;;;;5067109;28;20048;-76
2023/05/11 12:12:56;;;;;;;10.73;4.20;;;;;;;;;;5067359;28;20052;-75
2023/05/11 12:15:31;;;;;;;7.85;3.17;;;;;;;;;;5066667;28;20045;-76
2023/05/11 12:18:02;;;;;;;9.20;3.60;;;;;;;;;;5067336;28;20483;-75
2023/05/11 12:20:33;;;;;;;10.02;3.20;;;;;;;;;;5066922;28;20049;-77
2023/05/11 12:23:03;;;;;;;6.60;2.95;;;;;;;;;;5066894;28;20517;-76
2023/05/11 12:25:33;;;;;;;7.57;3.13;;;;;;;;;;5067047;28;20048;-76
2023/05/11 12:28:04;;;;;;;8.70;2.78;;;;;;;;;;5066998;28;20048;-76
2023/05/11 12:30:36;;;;;;;14.68;2.90;;;;;;;;;;5066280;28;20057;-80
2023/05/11 12:33:07;;;;;;;6.40;2.42;;;;;;;;;;5065575;28;20064;-76
2023/05/11 12:35:39;;;;;;;5.30;2.25;;;;;;;;;;5066459;28;20053;-75
2023/05/11 12:38:11;;;;;;;4.35;1.40;;;;;;;;;;5066411;28;20052;-75
2023/05/11 12:40:48;;;;;;;14.07;1.48;;;;;;;;;;5066545;28;20048;-76
2023/05/11 12:43:20;;;;;;;8.65;1.67;;;;;;;;;;5064484;28;20052;-75
2023/05/11 12:45:51;;;;;;;2.92;1.10;;;;;;;;;;5066178;28;20048;-76
2023/05/11 12:48:21;;;;;;;3.92;1.30;;;;;;;;;;5066158;28;20519;-74
2023/05/11 12:50:52;;;;;;;7.38;1.70;;;;;;;;;;5066209;28;20063;-78
2023/05/11 12:53:21;;;;;;;4.20;1.15;;;;;;;;;;5065443;28;20067;-77
2023/05/11 12:55:59;;;;;;;3.28;1.30;;;;;;;;;;5065986;28;20040;-75
2023/05/11 12:58:38;;;;;;;5.13;1.17;;;;;;;;;;5065848;28;20510;-76
2023/05/11 13:01:08;;;;;;;4.53;1.30;;;;;;;;;;5066376;28;20041;-77
2023/05/11 13:03:38;;;;;;;2.40;0.88;;;;;;;;;;5064449;28;20056;-77
2023/05/11 13:06:10;;;;;;;3.10;1.15;;;;;;;;;;5065722;28;20049;-77
2023/05/11 13:08:45;;;;;;;6.93;1.55;;;;;;;;;;5065182;28;20526;-76
2023/05/11 13:11:24;;;;;;;;;;;;;;;;;;5065672;28;20048;-78
2023/05/11 13:26:59;;;;;;;5.70;1.38;;;;;;;;;;5123450;27;20215;-77
2023/05/11 13:29:30;;;;;;;4.68;1.35;;;;;;;;;;5102398;28;20043;-76
2023/05/11 13:32:00;;;;;;;5.40;1.58;;;;;;;;;;5101907;28;20056;-77
2023/05/11 13:34:30;;;;;;;3.72;1.10;;;;;;;;;;5101962;28;20051;-76
2023/05/11 13:37:01;;;;;;;5.03;0.95;;;;;;;;;;5102354;28;20048;-76
2023/05/11 13:39:32;;;;;;;4.40;1.42;;;;;;;;;;5102676;28;20035;-77
2023/05/11 13:42:01;;;;;;;5.55;1.20;;;;;;;;;;5102615;28;20043;-75
2023/05/11 13:44:32;;;;;;;4.38;1.17;;;;;;;;;;5102662;28;20036;-76
2023/05/11 13:47:02;;;;;;;3.00;0.90;;;;;;;;;;5102541;28;20048;-78
2023/05/11 13:49:33;;;;;;;5.32;1.30;;;;;;;;;;5102236;28;20047;-76
2023/05/11 13:52:04;;;;;;;5.22;1.10;;;;;;;;;;5101959;28;20044;-75
2023/05/11 13:54:34;;;;;;;4.70;1.45;;;;;;;;;;5102608;28;20492;-75
2023/05/11 13:57:05;;;;;;;3.58;1.23;;;;;;;;;;5102005;28;20051;-76
2023/05/11 13:59:36;;;;;;;2.13;0.90;;;;;;;;;;5102635;28;20536;-77
2023/05/11 14:02:07;;;;;;;8.45;3.28;;;;;;;;;;5102000;28;20048;-77
2023/05/11 14:04:39;;;;;;;2.90;0.90;;;;;;;;;;5101888;28;20040;-77
2023/05/11 14:07:09;;;;;;;2.67;0.90;;;;;;;;;;5101824;28;20059;-75
2023/05/11 14:09:39;;;;;;;4.43;1.00;;;;;;;;;;5101454;28;20047;-76
2023/05/11 14:12:10;;;;;;;4.07;1.20;;;;;;;;;;5101892;28;20489;-76
2023/05/11 14:14:40;;;;;;;3.33;1.20;;;;;;;;;;5098898;28;20631;-76
2023/05/11 14:17:12;;;;;;;5.05;1.10;;;;;;;;;;5081305;28;20442;-76
2023/05/11 14:19:42;;;;;;;2.40;1.08;;;;;;;;;;5081780;28;20102;-75
2023/05/11 14:22:13;;;;;;;3.53;1.00;;;;;;;;;;5080824;28;20047;-76
2023/05/11 14:24:44;;;;;;;4.90;1.60;;;;;;;;;;5080427;28;20055;-76
2023/05/11 14:27:14;;;;;;;3.60;1.15;;;;;;;;;;5071268;28;20048;-76
2023/05/11 14:29:44;;;;;;;2.80;0.95;;;;;;;;;;5067588;28;20053;-76
2023/05/11 14:32:15;;;;;;;5.85;1.23;;;;;;;;;;5066235;28;20052;-76
2023/05/11 14:34:47;;;;;;;5.38;1.77;;;;;;;;;;5067378;28;20044;-77
2023/05/11 14:37:17;;;;;;;6.03;1.25;;;;;;;;;;5065780;28;20048;-76
2023/05/11 14:39:47;;;;;;;3.72;1.00;;;;;;;;;;5067644;28;20515;-81
2023/05/11 14:42:19;;;;;;;3.58;1.17;;;;;;;;;;5067196;28;20639;-77
2023/05/11 14:44:49;;;;;;;5.97;1.92;;;;;;;;;;5067323;28;20521;-75
2023/05/11 14:47:20;;;;;;;2.72;0.93;;;;;;;;;;5066982;28;20060;-77
2023/05/11 14:49:50;;;;;;;10.73;1.55;;;;;;;;;;5067378;28;20422;-80
2023/05/11 14:52:21;;;;;;;11.52;4.45;;;;;;;;;;5067261;28;20049;-76
2023/05/11 14:54:52;;;;;;;3.25;1.20;;;;;;;;;;5065612;28;20733;-79
2023/05/11 14:57:22;;;;;;;6.57;1.83;;;;;;;;;;5067743;28;20074;-78
2023/05/11 14:59:54;;;;;;;2.13;0.90;;;;;;;;;;5067315;28;20049;-76
2023/05/11 15:02:28;;;;;;;2.95;0.90;;;;;;;;;;5066864;28;20053;-82
2023/05/11 15:04:59;;;;;;;6.72;2.25;;;;;;;;;;5066901;28;20495;-74
2023/05/11 15:07:29;;;;;;;4.32;1.10;;;;;;;;;;5066720;28;20047;-75
2023/05/11 15:10:00;;;;;;;6.65;1.50;;;;;;;;;;5066876;28;20055;-78
2023/05/11 15:12:31;;;;;;;1.65;0.73;;;;;;;;;;5066753;28;20057;-78
2023/05/11 15:15:03;;;;;;;2.97;0.93;;;;;;;;;;5066656;28;20079;-76
2023/05/11 15:17:33;;;;;;;5.30;1.80;;;;;;;;;;5066385;28;20067;-75
2023/05/11 15:20:04;;;;;;;3.10;0.80;;;;;;;;;;5066549;28;20044;-76
2023/05/11 15:22:34;;;;;;;2.92;0.75;;;;;;;;;;5066698;28;20044;-79
2023/05/11 15:25:06;;;;;;;2.00;0.85;;;;;;;;;;5066516;28;20060;-76
2023/05/11 15:27:36;;;;;;;4.50;1.10;;;;;;;;;;5067099;28;20044;-79
2023/05/11 15:30:07;;;;;;;3.25;1.10;;;;;;;;;;5066583;28;20055;-76
2023/05/11 15:32:38;;;;;;;4.55;1.02;;;;;;;;;;5065030;28;20048;-78
2023/05/11 15:35:10;;;;;;;5.88;1.33;;;;;;;;;;5065914;28;20430;-76
2023/05/11 15:37:40;;;;;;;4.97;1.20;;;;;;;;;;5065360;28;20044;-76
2023/05/11 15:40:12;;;;;;;3.30;1.20;;;;;;;;;;5065517;28;20052;-76
2023/05/11 15:42:43;;;;;;;4.25;1.00;;;;;;;;;;5065057;28;20052;-77